Time;durP1;ratioP1;P1;durP2;ratioP2;P2;SDS_P1;SDS_P2;PMS_P1;PMS_P2;Temp;Humidity;BMP_temperature;BMP_pressure;BME280_temperature;BME280_humidity;BME280_pressure;Samples;Min_cycle;Max_cycle;Signal;HPM_P1;HPM_P2
2023/11/27 00:00:15;;;;;;;6.15;3.10;;;5.30;99.90;;;;;;5028013;28;20101;-61
2023/11/27 00:02:41;;;;;;;15.25;4.18;;;5.40;99.90;;;;;;5027390;28;20144;-61
2023/11/27 00:05:07;;;;;;;10.23;3.45;;;5.40;99.90;;;;;;5029165;28;20029;-61
2023/11/27 00:07:33;;;;;;;8.45;3.47;;;5.40;99.90;;;;;;5027027;28;20033;-61
2023/11/27 00:09:58;;;;;;;9.23;3.60;;;5.40;99.90;;;;;;5029190;28;20140;-59
2023/11/27 00:12:24;;;;;;;17.77;3.65;;;5.40;99.90;;;;;;5023662;28;20663;-60
2023/11/27 00:14:49;;;;;;;9.40;3.50;;;5.40;99.90;;;;;;5021238;28;20044;-61
2023/11/27 00:17:15;;;;;;;12.18;3.90;;;5.40;99.90;;;;;;5022315;28;20029;-60
2023/11/27 00:19:40;;;;;;;9.57;3.25;;;5.40;99.90;;;;;;5028208;28;20022;-60
2023/11/27 00:22:06;;;;;;;9.35;3.80;;;5.40;99.90;;;;;;5025323;28;20471;-61
2023/11/27 00:24:31;;;;;;;18.60;3.30;;;5.40;99.90;;;;;;5022705;28;20099;-59
2023/11/27 00:26:57;;;;;;;11.82;3.47;;;5.40;99.90;;;;;;5021035;28;20037;-61
2023/11/27 00:29:22;;;;;;;7.65;3.00;;;5.40;99.90;;;;;;5018806;28;20037;-60
2023/11/27 00:31:48;;;;;;;8.52;3.17;;;5.40;99.90;;;;;;5024932;28;20076;-57
2023/11/27 00:34:13;;;;;;;11.20;4.07;;;5.40;99.90;;;;;;5021588;28;21837;-58
2023/11/27 00:36:39;;;;;;;11.90;4.15;;;5.40;99.90;;;;;;5021546;28;20033;-59
2023/11/27 00:39:08;;;;;;;7.32;3.40;;;5.40;99.90;;;;;;5021405;28;20986;-61
2023/11/27 00:41:35;;;;;;;10.38;3.67;;;5.40;99.90;;;;;;5019822;28;20119;-58
2023/11/27 00:44:01;;;;;;;7.82;3.78;;;5.40;99.90;;;;;;5024929;28;20017;-59
2023/11/27 00:46:26;;;;;;;7.43;3.83;;;5.40;99.90;;;;;;5023707;28;20056;-60
2023/11/27 00:48:52;;;;;;;12.65;3.92;;;5.40;99.90;;;;;;5028800;28;20053;-60
2023/11/27 00:51:17;;;;;;;12.27;4.43;;;5.40;99.90;;;;;;5022765;28;20025;-60
2023/11/27 00:53:43;;;;;;;9.52;5.28;;;5.50;99.90;;;;;;5022167;28;20146;-56
2023/11/27 00:56:09;;;;;;;14.68;4.15;;;5.50;99.90;;;;;;5021996;28;20025;-59
2023/11/27 00:58:35;;;;;;;11.10;4.10;;;5.50;99.90;;;;;;5017842;28;20029;-61
2023/11/27 01:01:01;;;;;;;9.80;5.30;;;5.50;99.90;;;;;;5022493;28;20033;-61
2023/11/27 01:03:26;;;;;;;14.07;4.80;;;5.50;99.90;;;;;;5021783;28;20511;-59
2023/11/27 01:05:52;;;;;;;11.43;4.15;;;5.50;99.90;;;;;;5022526;28;20040;-59
2023/11/27 01:08:17;;;;;;;5.40;3.83;;;5.50;99.90;;;;;;5024027;28;20246;-61
2023/11/27 01:10:43;;;;;;;14.02;4.22;;;5.50;99.90;;;;;;5021620;28;20466;-58
2023/11/27 01:13:11;;;;;;;10.80;4.40;;;5.50;99.90;;;;;;5021908;28;20025;-60
2023/11/27 01:15:37;;;;;;;11.10;4.97;;;5.60;99.90;;;;;;5027288;28;20671;-61
2023/11/27 01:18:02;;;;;;;10.10;4.55;;;5.50;99.90;;;;;;5023704;28;20056;-58
2023/11/27 01:20:28;;;;;;;12.32;4.97;;;5.50;99.90;;;;;;5030620;28;20037;-60
2023/11/27 01:22:54;;;;;;;19.08;5.25;;;5.50;99.90;;;;;;5030831;28;20037;-61
2023/11/27 01:25:21;;;;;;;7.70;4.25;;;5.50;99.90;;;;;;5030170;28;20029;-59
2023/11/27 01:27:47;;;;;;;13.30;5.13;;;5.50;99.90;;;;;;5027902;28;20091;-58
2023/11/27 01:30:14;;;;;;;16.75;5.65;;;5.50;99.90;;;;;;5018728;28;20044;-59
2023/11/27 01:32:42;;;;;;;16.70;5.43;;;5.50;99.90;;;;;;5012629;28;20959;-58
2023/11/27 01:35:08;;;;;;;13.00;6.10;;;5.50;99.90;;;;;;5019317;28;20050;-60
2023/11/27 01:37:34;;;;;;;15.80;5.35;;;5.50;99.90;;;;;;5020172;28;20483;-60
2023/11/27 01:39:59;;;;;;;16.75;5.05;;;5.50;99.90;;;;;;5015112;28;20045;-61
2023/11/27 01:42:25;;;;;;;14.32;5.55;;;5.60;99.90;;;;;;5015100;28;20108;-58
2023/11/27 01:44:51;;;;;;;14.57;5.05;;;5.60;99.90;;;;;;5017061;28;20037;-61
2023/11/27 01:47:17;;;;;;;13.48;5.57;;;5.60;99.90;;;;;;5010864;28;20040;-58
2023/11/27 01:49:44;;;;;;;13.00;4.68;;;5.60;99.90;;;;;;5015817;28;20038;-58
2023/11/27 01:52:10;;;;;;;12.13;4.50;;;5.70;99.90;;;;;;5011603;28;20093;-58
2023/11/27 01:54:38;;;;;;;7.28;4.53;;;5.60;99.90;;;;;;5018035;28;20045;-61
2023/11/27 01:57:04;;;;;;;11.25;4.55;;;5.60;99.90;;;;;;5014949;28;20061;-59
2023/11/27 01:59:31;;;;;;;9.45;4.65;;;5.60;99.90;;;;;;5016418;28;20030;-60
2023/11/27 02:01:57;;;;;;;8.77;4.78;;;5.60;99.90;;;;;;5021950;28;20026;-59
2023/11/27 02:04:23;;;;;;;12.02;4.38;;;5.60;99.90;;;;;;5020348;28;20104;-60
2023/11/27 02:06:50;;;;;;;10.02;5.05;;;5.60;99.90;;;;;;5019650;28;20108;-58
2023/11/27 02:09:16;;;;;;;12.40;4.82;;;5.60;99.90;;;;;;5017816;28;20072;-59
2023/11/27 02:11:44;;;;;;;8.93;4.32;;;5.60;99.90;;;;;;5019728;28;20025;-59
2023/11/27 02:14:09;;;;;;;10.07;4.20;;;5.60;99.90;;;;;;5018267;28;20030;-60
2023/11/27 02:16:35;;;;;;;13.07;4.63;;;5.60;99.90;;;;;;5019704;28;20087;-58
2023/11/27 02:19:00;;;;;;;14.40;5.00;;;5.60;99.90;;;;;;5019521;28;20033;-60
2023/11/27 02:21:26;;;;;;;10.23;5.28;;;5.50;99.90;;;;;;5020646;28;20028;-58
2023/11/27 02:23:52;;;;;;;10.38;5.53;;;5.50;99.90;;;;;;5022365;28;20037;-60
2023/11/27 02:26:17;;;;;;;13.38;4.88;;;5.60;99.90;;;;;;5025018;28;20045;-57
2023/11/27 02:28:43;;;;;;;10.98;5.13;;;5.60;99.90;;;;;;5020868;28;20033;-61
2023/11/27 02:31:09;;;;;;;14.98;5.50;;;5.60;99.90;;;;;;5028518;28;20053;-58
2023/11/27 02:33:36;;;;;;;17.13;4.82;;;5.60;99.90;;;;;;5021499;28;20064;-59
2023/11/27 02:36:04;;;;;;;9.60;3.88;;;5.60;99.90;;;;;;5019997;28;20729;-60
2023/11/27 02:38:30;;;;;;;7.25;4.18;;;5.60;99.90;;;;;;5015926;28;20096;-58
2023/11/27 02:40:56;;;;;;;11.38;6.00;;;5.50;99.90;;;;;;5019334;28;20056;-61
2023/11/27 02:43:21;;;;;;;9.88;5.13;;;5.60;99.90;;;;;;5026415;28;20017;-59
2023/11/27 02:45:47;;;;;;;11.80;5.82;;;5.60;99.90;;;;;;5026359;28;20037;-59
2023/11/27 02:48:12;;;;;;;12.93;4.88;;;5.50;99.90;;;;;;5027841;28;20033;-58
2023/11/27 02:50:38;;;;;;;12.10;5.05;;;5.50;99.90;;;;;;5024455;28;20022;-60
2023/11/27 02:53:04;;;;;;;12.77;5.88;;;5.40;99.90;;;;;;5020567;28;20491;-60
2023/11/27 02:55:29;;;;;;;9.73;4.18;;;5.50;99.90;;;;;;5019729;28;20033;-58
2023/11/27 02:57:55;;;;;;;7.18;4.97;;;5.50;99.90;;;;;;5018751;28;20037;-60
2023/11/27 03:00:21;;;;;;;10.35;5.68;;;5.50;99.90;;;;;;5015596;28;20125;-59
2023/11/27 03:02:46;;;;;;;15.65;5.50;;;5.40;99.90;;;;;;5020094;28;20460;-57
2023/11/27 03:05:12;;;;;;;10.05;5.03;;;5.40;99.90;;;;;;5019368;28;20091;-58
2023/11/27 03:07:38;;;;;;;13.43;5.25;;;5.40;99.90;;;;;;5021547;28;20057;-60
2023/11/27 03:10:04;;;;;;;13.73;5.82;;;5.40;99.90;;;;;;5019789;28;20036;-60
2023/11/27 03:12:30;;;;;;;12.48;5.00;;;5.40;99.90;;;;;;5020273;28;20037;-59
2023/11/27 03:14:56;;;;;;;27.02;5.80;;;5.40;99.90;;;;;;5018795;28;20037;-56
2023/11/27 03:17:22;;;;;;;16.33;4.85;;;5.40;99.90;;;;;;5017290;28;20033;-58
2023/11/27 03:19:48;;;;;;;17.83;5.45;;;5.40;99.90;;;;;;5017717;28;20017;-58
2023/11/27 03:22:14;;;;;;;12.55;5.80;;;5.40;99.90;;;;;;5020657;28;20407;-59
2023/11/27 03:24:39;;;;;;;14.05;5.38;;;5.30;99.90;;;;;;5016320;28;20036;-60
2023/11/27 03:27:05;;;;;;;9.93;5.25;;;5.30;99.90;;;;;;5019138;28;20041;-61
2023/11/27 03:29:31;;;;;;;7.47;4.60;;;5.30;99.90;;;;;;5017532;28;20100;-61
2023/11/27 03:31:57;;;;;;;11.75;5.60;;;5.30;99.90;;;;;;5018545;28;20484;-60
2023/11/27 03:34:22;;;;;;;11.98;4.95;;;5.30;99.90;;;;;;5020167;28;20052;-60
2023/11/27 03:36:48;;;;;;;16.73;5.90;;;5.30;99.90;;;;;;5023419;28;20025;-59
2023/11/27 03:39:14;;;;;;;15.38;5.40;;;5.20;99.90;;;;;;5020457;28;20087;-61
2023/11/27 03:41:39;;;;;;;18.23;6.03;;;5.30;99.90;;;;;;5017902;28;20114;-60
2023/11/27 03:44:05;;;;;;;22.38;5.90;;;5.20;99.90;;;;;;5020407;28;20403;-60
2023/11/27 03:46:30;;;;;;;11.82;5.72;;;5.30;99.90;;;;;;5019521;28;20377;-60
2023/11/27 03:48:56;;;;;;;13.88;6.05;;;5.30;99.90;;;;;;5021171;28;20064;-60
2023/11/27 03:51:21;;;;;;;15.30;5.38;;;5.30;99.90;;;;;;5020124;28;20116;-60
2023/11/27 03:53:47;;;;;;;11.20;5.72;;;5.30;99.90;;;;;;5021892;28;20025;-59
2023/11/27 03:56:12;;;;;;;11.40;5.80;;;5.20;99.90;;;;;;5022436;28;20107;-60
2023/11/27 03:58:38;;;;;;;10.38;4.95;;;5.20;99.90;;;;;;5021169;28;20025;-59
2023/11/27 04:01:04;;;;;;;15.55;5.10;;;5.20;99.90;;;;;;5026360;28;20029;-60
2023/11/27 04:03:30;;;;;;;11.43;5.60;;;5.30;99.90;;;;;;5024460;28;20022;-61
2023/11/27 04:05:55;;;;;;;11.25;5.40;;;5.20;99.90;;;;;;5029424;28;20108;-60
2023/11/27 04:08:21;;;;;;;12.45;4.88;;;5.20;99.90;;;;;;5027323;28;20040;-60
2023/11/27 04:10:46;;;;;;;12.75;5.75;;;5.20;99.90;;;;;;5023559;28;20479;-60
2023/11/27 04:13:12;;;;;;;14.27;5.75;;;5.20;99.90;;;;;;5021391;28;20025;-59
2023/11/27 04:15:37;;;;;;;14.85;5.20;;;5.10;99.90;;;;;;5020873;28;20052;-58
2023/11/27 04:18:03;;;;;;;14.52;4.85;;;5.10;99.90;;;;;;5020122;28;20033;-58
2023/11/27 04:20:28;;;;;;;11.50;4.70;;;5.10;99.90;;;;;;5019211;28;20025;-60
2023/11/27 04:22:56;;;;;;;14.23;5.65;;;5.10;99.90;;;;;;5018282;28;20026;-60
2023/11/27 04:25:21;;;;;;;8.23;4.75;;;5.10;99.90;;;;;;5021768;28;20033;-56
2023/11/27 04:27:48;;;;;;;17.90;5.28;;;5.10;99.90;;;;;;5019195;28;20044;-59
2023/11/27 04:30:14;;;;;;;19.25;5.63;;;5.10;99.90;;;;;;5019605;28;20022;-57
2023/11/27 04:32:39;;;;;;;12.07;5.07;;;5.20;99.90;;;;;;5020690;28;20779;-55
2023/11/27 04:35:05;;;;;;;11.60;4.82;;;5.10;99.90;;;;;;5019259;28;20487;-58
2023/11/27 04:37:31;;;;;;;12.25;4.78;;;5.20;99.90;;;;;;5021845;28;20033;-58
2023/11/27 04:39:56;;;;;;;8.07;4.57;;;5.10;99.90;;;;;;4986116;28;1036848;-60
2023/11/27 04:42:23;;;;;;;10.50;5.20;;;5.10;99.90;;;;;;5018053;28;20040;-59
2023/11/27 04:44:49;;;;;;;10.48;4.85;;;5.10;99.90;;;;;;5019383;28;20025;-59
2023/11/27 04:47:16;;;;;;;12.48;5.13;;;5.10;99.90;;;;;;5021439;28;20463;-60
2023/11/27 04:49:42;;;;;;;13.52;4.82;;;5.10;99.90;;;;;;5022837;28;20053;-59
2023/11/27 04:52:07;;;;;;;11.93;5.13;;;5.10;99.90;;;;;;5022179;28;20068;-60
2023/11/27 04:54:33;;;;;;;15.68;4.82;;;5.10;99.90;;;;;;5020999;28;20109;-59
2023/11/27 04:56:59;;;;;;;11.85;5.25;;;5.20;99.90;;;;;;5018081;28;20036;-56
2023/11/27 04:59:26;;;;;;;13.75;4.60;;;5.10;99.90;;;;;;5016614;28;20033;-59
2023/11/27 05:01:52;;;;;;;14.43;4.80;;;5.20;99.90;;;;;;5013818;28;20472;-59
2023/11/27 05:04:18;;;;;;;15.10;5.85;;;5.10;99.90;;;;;;5013719;28;20040;-57
2023/11/27 05:06:44;;;;;;;10.82;4.65;;;5.20;99.90;;;;;;5014557;28;20109;-58
2023/11/27 05:09:12;;;;;;;12.10;4.18;;;5.20;99.90;;;;;;5013678;28;20048;-62
2023/11/27 05:11:38;;;;;;;13.77;4.38;;;5.20;99.90;;;;;;5013703;28;20652;-59
2023/11/27 05:14:04;;;;;;;12.13;5.13;;;5.10;99.90;;;;;;5011632;28;20028;-60
2023/11/27 05:16:29;;;;;;;9.00;4.18;;;5.10;99.90;;;;;;5011769;28;20037;-61
2023/11/27 05:18:55;;;;;;;13.70;5.13;;;5.10;99.90;;;;;;5014157;28;20042;-60
2023/11/27 05:21:21;;;;;;;14.90;5.03;;;5.10;99.90;;;;;;5012533;28;20059;-59
2023/11/27 05:23:47;;;;;;;14.43;4.85;;;5.10;99.90;;;;;;5015913;28;20029;-59
2023/11/27 05:26:13;;;;;;;17.15;5.05;;;5.00;99.90;;;;;;5020644;28;20025;-58
2023/11/27 05:28:40;;;;;;;8.73;4.78;;;5.00;99.90;;;;;;5021310;28;20549;-57
2023/11/27 05:31:06;;;;;;;9.80;4.55;;;5.00;99.90;;;;;;5020455;28;20030;-61
2023/11/27 05:33:32;;;;;;;10.75;5.00;;;4.90;99.90;;;;;;5022581;28;20025;-58
2023/11/27 05:35:57;;;;;;;22.38;4.72;;;4.90;99.90;;;;;;5022544;28;20044;-59
2023/11/27 05:38:23;;;;;;;13.98;4.20;;;4.90;99.90;;;;;;5020216;28;20033;-59
2023/11/27 05:40:50;;;;;;;13.95;4.55;;;4.90;99.90;;;;;;5015655;28;20084;-59
2023/11/27 05:43:17;;;;;;;15.90;5.82;;;4.90;99.90;;;;;;5012155;28;20037;-58
2023/11/27 05:45:43;;;;;;;7.85;3.78;;;4.90;99.90;;;;;;5034466;28;20030;-61
2023/11/27 05:48:08;;;;;;;11.63;4.00;;;4.90;99.90;;;;;;5022783;28;20037;-61
2023/11/27 05:50:34;;;;;;;7.07;4.00;;;4.80;99.90;;;;;;5020882;28;20030;-60
2023/11/27 05:53:00;;;;;;;12.30;4.38;;;4.80;99.90;;;;;;5013318;28;20038;-57
2023/11/27 05:55:26;;;;;;;18.90;5.18;;;4.80;99.90;;;;;;5012392;28;20025;-59
2023/11/27 05:57:54;;;;;;;17.08;4.25;;;4.80;99.90;;;;;;5017744;28;20029;-59
2023/11/27 06:00:20;;;;;;;15.32;5.13;;;4.80;99.90;;;;;;5018753;28;20547;-59
2023/11/27 06:02:45;;;;;;;9.68;5.10;;;4.80;99.90;;;;;;5024163;28;20031;-59
2023/11/27 06:05:11;;;;;;;14.75;5.47;;;4.70;99.90;;;;;;5022916;28;20018;-60
2023/11/27 06:07:36;;;;;;;16.38;6.20;;;4.80;99.90;;;;;;5018071;28;20040;-60
2023/11/27 06:10:03;;;;;;;13.13;5.65;;;4.70;99.90;;;;;;5020626;28;20336;-60
2023/11/27 06:12:29;;;;;;;12.43;5.55;;;4.60;99.90;;;;;;5021516;28;20021;-60
2023/11/27 06:14:54;;;;;;;14.68;5.45;;;4.70;99.90;;;;;;5017929;28;20037;-60
2023/11/27 06:17:20;;;;;;;17.30;5.50;;;4.70;99.90;;;;;;5020640;28;20116;-58
2023/11/27 06:19:46;;;;;;;13.95;5.93;;;4.60;99.90;;;;;;5018575;28;20029;-58
2023/11/27 06:22:12;;;;;;;16.02;5.88;;;4.70;99.90;;;;;;5018580;28;20027;-59
2023/11/27 06:24:37;;;;;;;15.55;5.78;;;4.60;99.90;;;;;;5019120;28;20036;-61
2023/11/27 06:27:03;;;;;;;15.07;5.55;;;4.70;99.90;;;;;;5021686;28;20025;-58
2023/11/27 06:29:29;;;;;;;18.80;6.00;;;4.60;99.90;;;;;;5021776;28;20385;-62
2023/11/27 06:31:54;;;;;;;16.85;5.47;;;4.50;99.90;;;;;;5019711;28;20036;-58
2023/11/27 06:34:20;;;;;;;18.27;5.63;;;4.50;99.90;;;;;;5022909;28;20483;-59
2023/11/27 06:36:45;;;;;;;12.60;5.50;;;4.50;99.90;;;;;;5020085;28;20045;-62
2023/11/27 06:39:11;;;;;;;16.02;6.60;;;4.50;99.90;;;;;;5027473;28;20018;-60
2023/11/27 06:41:37;;;;;;;16.38;5.50;;;4.40;99.90;;;;;;5023839;28;20377;-59
2023/11/27 06:44:02;;;;;;;13.20;5.78;;;4.50;99.90;;;;;;5027770;28;20115;-58
2023/11/27 06:46:28;;;;;;;14.35;5.68;;;4.50;99.90;;;;;;5029507;28;20553;-61
2023/11/27 06:48:54;;;;;;;17.08;6.25;;;4.40;99.90;;;;;;5024316;28;20488;-58
2023/11/27 06:51:20;;;;;;;12.88;5.97;;;4.50;99.90;;;;;;5028034;28;20021;-61
2023/11/27 06:53:45;;;;;;;17.08;6.15;;;4.40;99.90;;;;;;5024142;28;20030;-60
2023/11/27 06:56:11;;;;;;;13.45;5.45;;;4.50;99.90;;;;;;5030156;28;20112;-61
2023/11/27 06:58:37;;;;;;;19.17;5.95;;;4.40;99.90;;;;;;5026416;28;20059;-59
2023/11/27 07:01:04;;;;;;;11.93;5.35;;;4.40;99.90;;;;;;5028881;28;20397;-62
2023/11/27 07:03:30;;;;;;;16.42;5.43;;;4.40;99.90;;;;;;5025709;28;20087;-61
2023/11/27 07:05:55;;;;;;;17.65;5.82;;;4.40;99.90;;;;;;5032325;28;20030;-61
2023/11/27 07:08:21;;;;;;;14.35;6.72;;;4.50;99.90;;;;;;5034774;28;20041;-58
2023/11/27 07:10:47;;;;;;;13.00;5.68;;;4.40;99.90;;;;;;5029810;28;20388;-62
2023/11/27 07:13:13;;;;;;;19.05;5.80;;;4.40;99.90;;;;;;5023439;28;20033;-57
2023/11/27 07:15:38;;;;;;;14.63;5.68;;;4.40;99.90;;;;;;5024744;28;20529;-58
2023/11/27 07:18:04;;;;;;;11.20;6.13;;;4.40;99.90;;;;;;5015225;28;20033;-60
2023/11/27 07:20:31;;;;;;;11.15;6.45;;;4.40;99.90;;;;;;5016994;28;20034;-62
2023/11/27 07:22:58;;;;;;;12.10;6.13;;;4.40;99.90;;;;;;5018653;28;20025;-61
2023/11/27 07:25:24;;;;;;;9.35;5.65;;;4.30;99.90;;;;;;5022697;28;20038;-58
2023/11/27 07:27:49;;;;;;;13.13;5.10;;;4.30;99.90;;;;;;5017300;28;20064;-62
2023/11/27 07:30:16;;;;;;;13.95;5.50;;;4.30;99.90;;;;;;5023096;28;20504;-59
2023/11/27 07:32:42;;;;;;;11.73;5.18;;;4.30;99.90;;;;;;5034125;28;20107;-61
2023/11/27 07:35:11;;;;;;;16.20;5.18;;;4.30;99.90;;;;;;5025390;28;20139;-61
2023/11/27 07:37:37;;;;;;;8.07;5.10;;;4.20;99.90;;;;;;5018187;28;20057;-59
2023/11/27 07:40:14;;;;;;;12.73;4.70;;;4.30;99.90;;;;;;5018424;28;20099;-60
2023/11/27 07:42:41;;;;;;;8.93;4.60;;;4.30;99.90;;;;;;5027986;28;20025;-59
2023/11/27 07:45:07;;;;;;;9.07;4.40;;;4.30;99.90;;;;;;5017033;28;20026;-61
2023/11/27 07:47:34;;;;;;;9.70;4.30;;;4.20;99.90;;;;;;5021856;28;20136;-62
2023/11/27 07:50:00;;;;;;;10.77;5.05;;;4.30;99.90;;;;;;5025351;28;20298;-61
2023/11/27 07:52:27;;;;;;;13.10;5.10;;;4.30;99.90;;;;;;5023494;28;20499;-60
2023/11/27 07:54:52;;;;;;;18.23;5.38;;;4.30;99.90;;;;;;5025411;28;20029;-60
2023/11/27 07:57:18;;;;;;;11.65;5.07;;;4.30;99.90;;;;;;5026187;28;20026;-60
2023/11/27 07:59:43;;;;;;;10.63;5.00;;;4.20;99.90;;;;;;5023739;28;20379;-61
2023/11/27 08:02:09;;;;;;;14.52;5.20;;;4.30;99.90;;;;;;5029308;28;20026;-59
2023/11/27 08:04:35;;;;;;;13.80;5.20;;;4.30;99.90;;;;;;5027638;28;20286;-61
2023/11/27 08:07:01;;;;;;;11.60;5.53;;;4.20;99.90;;;;;;5024635;28;20052;-61
2023/11/27 08:09:27;;;;;;;13.35;5.68;;;4.20;99.90;;;;;;5022665;28;20029;-62
2023/11/27 08:11:53;;;;;;;11.48;5.60;;;4.20;99.90;;;;;;5022614;28;20087;-60
2023/11/27 08:14:18;;;;;;;12.05;4.85;;;4.30;99.90;;;;;;5025502;28;20499;-61
2023/11/27 08:16:46;;;;;;;10.65;5.35;;;4.20;99.90;;;;;;5020274;28;20018;-60
2023/11/27 08:19:16;;;;;;;11.48;4.85;;;4.20;99.90;;;;;;5025772;28;20021;-61
2023/11/27 08:21:42;;;;;;;14.07;5.03;;;4.20;99.90;;;;;;5025047;28;20732;-61
2023/11/27 08:24:08;;;;;;;9.27;4.80;;;4.20;99.90;;;;;;5027408;28;20068;-62
2023/11/27 08:26:39;;;;;;;9.32;4.70;;;4.10;99.90;;;;;;5028092;28;20080;-60
2023/11/27 08:29:07;;;;;;;9.35;5.13;;;4.20;99.90;;;;;;5029955;28;20028;-62
2023/11/27 08:31:33;;;;;;;7.75;4.82;;;4.20;99.90;;;;;;5023608;28;20083;-60
2023/11/27 08:33:58;;;;;;;12.52;5.25;;;4.20;99.90;;;;;;5027885;28;20483;-61
2023/11/27 08:36:27;;;;;;;17.55;7.72;;;4.20;99.90;;;;;;5028795;28;20061;-62
2023/11/27 08:38:55;;;;;;;21.73;11.20;;;4.20;99.90;;;;;;5025617;28;20167;-62
2023/11/27 08:41:21;;;;;;;11.52;6.10;;;4.20;99.90;;;;;;5028016;28;20075;-61
2023/11/27 08:43:47;;;;;;;12.15;6.00;;;4.30;99.90;;;;;;5026450;28;20068;-61
2023/11/27 08:46:13;;;;;;;8.52;4.78;;;4.30;99.90;;;;;;5022048;28;20053;-60
2023/11/27 08:48:39;;;;;;;12.60;5.72;;;4.30;99.90;;;;;;5024324;28;20041;-58
2023/11/27 08:51:09;;;;;;;9.70;4.90;;;4.30;99.90;;;;;;5016761;28;20424;-58
2023/11/27 08:53:35;;;;;;;7.65;4.85;;;4.30;99.90;;;;;;5025318;28;20480;-59
2023/11/27 08:56:02;;;;;;;11.65;5.38;;;4.30;99.90;;;;;;5028263;28;20522;-59
2023/11/27 08:58:28;;;;;;;9.02;4.10;;;4.30;99.90;;;;;;5027559;28;20022;-59
2023/11/27 09:00:54;;;;;;;12.70;4.63;;;4.30;99.90;;;;;;5025977;28;20400;-61
2023/11/27 09:03:20;;;;;;;11.57;4.45;;;4.40;99.90;;;;;;5023200;28;20030;-60
2023/11/27 09:05:46;;;;;;;6.18;3.35;;;4.40;99.90;;;;;;5018464;28;20052;-61
2023/11/27 09:08:13;;;;;;;5.32;3.45;;;4.30;99.90;;;;;;5029519;28;20083;-60
2023/11/27 09:10:40;;;;;;;12.13;4.47;;;4.40;99.90;;;;;;5026665;28;20025;-62
2023/11/27 09:13:06;;;;;;;5.75;2.97;;;4.40;99.90;;;;;;5027683;28;20029;-61
2023/11/27 09:15:33;;;;;;;5.72;2.95;;;4.50;99.90;;;;;;5028144;28;20053;-60
2023/11/27 09:17:59;;;;;;;6.82;2.55;;;4.40;99.90;;;;;;5027883;28;20076;-61
2023/11/27 09:20:25;;;;;;;6.05;2.00;;;4.40;99.90;;;;;;5023269;28;20025;-60
2023/11/27 09:22:52;;;;;;;5.07;1.52;;;4.40;99.90;;;;;;5026224;28;20164;-60
2023/11/27 09:25:18;;;;;;;5.82;2.00;;;4.50;99.90;;;;;;5028555;28;20101;-62
2023/11/27 09:27:43;;;;;;;4.05;1.33;;;4.50;99.90;;;;;;5025055;28;20249;-59
2023/11/27 09:30:10;;;;;;;1.75;1.30;;;4.50;99.90;;;;;;5025227;28;20476;-59
2023/11/27 09:32:36;;;;;;;2.08;1.20;;;4.50;99.90;;;;;;5025004;28;20063;-59
2023/11/27 09:35:04;;;;;;;2.25;1.20;;;4.50;99.90;;;;;;5022078;28;20058;-61
2023/11/27 09:37:32;;;;;;;2.00;1.23;;;4.40;99.90;;;;;;5023647;28;20017;-60
2023/11/27 09:39:59;;;;;;;1.70;0.80;;;4.50;99.90;;;;;;5028186;28;20025;-59
2023/11/27 09:42:35;;;;;;;1.23;0.98;;;4.50;99.90;;;;;;5026942;28;20029;-61
2023/11/27 09:45:05;;;;;;;2.17;1.23;;;4.50;99.90;;;;;;5026979;28;20029;-62
2023/11/27 09:47:31;;;;;;;3.75;1.13;;;4.50;99.90;;;;;;5026793;28;20033;-61
2023/11/27 09:49:59;;;;;;;2.35;1.10;;;4.50;99.90;;;;;;5028151;28;20116;-61
2023/11/27 09:52:31;;;;;;;1.95;1.00;;;4.40;99.90;;;;;;5020632;28;20041;-61
2023/11/27 09:55:02;;;;;;;3.42;1.10;;;4.40;99.90;;;;;;5029460;28;20127;-60
2023/11/27 09:57:29;;;;;;;3.72;1.02;;;4.40;99.90;;;;;;5025270;28;20030;-61
2023/11/27 09:59:55;;;;;;;1.42;1.05;;;4.50;99.90;;;;;;5022396;28;20030;-60
2023/11/27 10:02:22;;;;;;;3.63;1.20;;;4.50;99.90;;;;;;5015443;28;20030;-59
2023/11/27 10:04:49;;;;;;;2.45;1.33;;;4.40;99.90;;;;;;5021194;28;20105;-61
2023/11/27 10:07:14;;;;;;;17.52;7.43;;;4.50;99.90;;;;;;5030119;28;20024;-61
2023/11/27 10:09:40;;;;;;;8.38;3.97;;;4.50;99.90;;;;;;5027928;28;20469;-61
2023/11/27 10:12:06;;;;;;;7.43;2.33;;;4.50;99.90;;;;;;5029631;28;20180;-61
2023/11/27 10:14:32;;;;;;;2.70;1.20;;;4.50;99.90;;;;;;5027077;28;20108;-59
2023/11/27 10:17:01;;;;;;;3.85;1.05;;;4.40;99.90;;;;;;5016457;28;20412;-60
2023/11/27 10:19:26;;;;;;;1.95;1.00;;;4.40;99.90;;;;;;5024587;28;20044;-60
2023/11/27 10:21:56;;;;;;;3.33;1.27;;;4.40;99.90;;;;;;5026530;28;20548;-61
2023/11/27 10:24:21;;;;;;;3.42;2.25;;;4.40;99.90;;;;;;5026586;28;20392;-61
2023/11/27 10:26:47;;;;;;;2.10;0.98;;;4.40;99.90;;;;;;5026064;28;20025;-61
2023/11/27 10:29:25;;;;;;;3.47;1.30;;;4.40;99.90;;;;;;5022382;28;20026;-61
2023/11/27 10:31:58;;;;;;;1.02;0.90;;;4.40;99.90;;;;;;5024505;28;20261;-60
2023/11/27 10:34:32;;;;;;;2.20;1.00;;;4.40;99.90;;;;;;5029343;28;20065;-60
2023/11/27 10:37:00;;;;;;;2.10;1.10;;;4.50;99.90;;;;;;5029546;28;20706;-61
2023/11/27 10:39:33;;;;;;;5.93;1.27;;;4.50;99.90;;;;;;5025919;28;20504;-59
2023/11/27 10:42:03;;;;;;;1.23;0.90;;;4.50;99.90;;;;;;5025037;28;20079;-60
2023/11/27 10:44:34;;;;;;;2.63;0.90;;;4.40;99.90;;;;;;5026060;28;20026;-60
2023/11/27 10:47:02;;;;;;;1.20;1.10;;;4.40;99.90;;;;;;5018284;28;20022;-61
2023/11/27 10:49:32;;;;;;;2.53;1.30;;;4.40;99.90;;;;;;5032232;28;20025;-61
2023/11/27 10:51:59;;;;;;;3.03;1.48;;;4.40;99.90;;;;;;5026964;28;20044;-61
2023/11/27 10:54:30;;;;;;;2.90;1.63;;;4.40;99.90;;;;;;5022845;28;20374;-59
2023/11/27 10:57:02;;;;;;;4.57;1.98;;;4.50;99.90;;;;;;5026199;28;20040;-60
2023/11/27 10:59:30;;;;;;;3.55;1.17;;;4.40;99.90;;;;;;5028273;28;20064;-60
2023/11/27 11:02:00;;;;;;;6.97;1.23;;;4.50;99.90;;;;;;5018209;28;20025;-62
2023/11/27 11:04:35;;;;;;;2.40;1.20;;;4.50;99.90;;;;;;5021937;28;20116;-61
2023/11/27 11:07:18;;;;;;;1.30;1.05;;;4.50;99.90;;;;;;5027308;28;20458;-61
2023/11/27 11:09:46;;;;;;;3.20;1.20;;;4.40;99.90;;;;;;5024699;28;20029;-61
2023/11/27 11:12:23;;;;;;;1.80;1.40;;;4.50;99.90;;;;;;5025603;28;20034;-61
2023/11/27 11:14:54;;;;;;;3.80;1.25;;;4.40;99.90;;;;;;5019344;28;20483;-61
2023/11/27 11:17:29;;;;;;;3.58;1.38;;;4.40;99.90;;;;;;5016150;28;20021;-60
2023/11/27 11:20:14;;;;;;;2.22;1.05;;;4.40;99.90;;;;;;5026262;28;20032;-60
2023/11/27 11:22:43;;;;;;;4.85;1.27;;;4.40;99.90;;;;;;5025523;28;20036;-61
2023/11/27 11:25:35;;;;;;;4.07;1.48;;;4.40;99.90;;;;;;5029815;28;20020;-61
2023/11/27 11:28:11;;;;;;;13.18;5.97;;;4.40;99.90;;;;;;5024353;28;20095;-62
2023/11/27 11:30:37;;;;;;;9.02;2.78;;;4.40;99.90;;;;;;5027219;28;20033;-61
2023/11/27 11:33:08;;;;;;;2.22;1.60;;;4.40;99.90;;;;;;5029496;28;20492;-61
2023/11/27 11:35:36;;;;;;;3.58;1.63;;;4.40;99.90;;;;;;5028040;28;20080;-61
2023/11/27 11:38:13;;;;;;;1.77;1.50;;;4.50;99.90;;;;;;5028133;28;20492;-61
2023/11/27 11:40:47;;;;;;;1.67;1.17;;;4.50;99.90;;;;;;5033623;28;20029;-60
2023/11/27 11:43:15;;;;;;;2.75;1.30;;;4.40;99.90;;;;;;5028039;28;20053;-61
2023/11/27 11:45:41;;;;;;;4.07;1.40;;;4.40;99.90;;;;;;5028867;28;20171;-60
2023/11/27 11:48:08;;;;;;;3.70;1.60;;;4.50;99.90;;;;;;5030443;28;20017;-60
2023/11/27 11:50:43;;;;;;;2.28;1.45;;;4.50;99.90;;;;;;5037920;28;20410;-61
2023/11/27 11:53:20;;;;;;;3.20;1.38;;;4.50;99.90;;;;;;5026190;28;20030;-60
2023/11/27 11:55:48;;;;;;;4.70;1.70;;;4.50;99.90;;;;;;5027953;28;20492;-61
2023/11/27 11:58:19;;;;;;;3.53;1.65;;;4.50;99.90;;;;;;5030578;28;20029;-61
2023/11/27 12:00:50;;;;;;;3.70;1.52;;;4.50;99.90;;;;;;5028917;28;20052;-61
2023/11/27 12:03:18;;;;;;;2.25;1.60;;;4.50;99.90;;;;;;5028882;28;20030;-61
2023/11/27 12:05:50;;;;;;;1.77;1.20;;;4.50;99.90;;;;;;5025344;28;20492;-61
2023/11/27 12:08:17;;;;;;;1.85;1.45;;;4.50;99.90;;;;;;5026418;28;20014;-60
2023/11/27 12:10:43;;;;;;;4.05;1.50;;;4.50;99.90;;;;;;5031098;28;20032;-61
2023/11/27 12:13:12;;;;;;;1.70;1.30;;;4.50;99.90;;;;;;5033232;28;20037;-60
2023/11/27 12:15:37;;;;;;;4.00;1.48;;;4.50;99.90;;;;;;5033955;28;20037;-61
2023/11/27 12:18:08;;;;;;;2.60;1.60;;;4.50;99.90;;;;;;5029524;28;20033;-61
2023/11/27 12:20:37;;;;;;;3.80;1.45;;;4.50;99.90;;;;;;5027580;28;20170;-61
2023/11/27 12:23:04;;;;;;;2.47;1.75;;;4.50;99.90;;;;;;5026375;28;20189;-60
2023/11/27 12:25:30;;;;;;;5.28;1.60;;;4.50;99.90;;;;;;5026241;28;20495;-61
2023/11/27 12:27:56;;;;;;;4.10;2.60;;;4.50;99.90;;;;;;5027402;28;20116;-61
2023/11/27 12:30:21;;;;;;;2.30;1.58;;;4.50;99.90;;;;;;5029998;28;20511;-60
2023/11/27 12:32:51;;;;;;;1.70;1.33;;;4.60;99.90;;;;;;5028808;28;20048;-62
2023/11/27 12:35:21;;;;;;;5.78;1.70;;;4.50;99.90;;;;;;5026864;28;20495;-60
2023/11/27 12:37:49;;;;;;;2.75;1.80;;;4.50;99.90;;;;;;5023031;28;20120;-61
2023/11/27 12:40:19;;;;;;;2.58;1.73;;;4.50;99.90;;;;;;5027952;28;20112;-60
2023/11/27 12:42:48;;;;;;;6.28;2.50;;;4.60;99.90;;;;;;5024912;28;20030;-61
2023/11/27 12:45:20;;;;;;;3.70;1.83;;;4.60;99.90;;;;;;5029473;28;20056;-61
2023/11/27 12:47:50;;;;;;;5.57;2.17;;;4.60;99.90;;;;;;5028507;28;20117;-61